Terminal Aerodrome Forecast
Issued by NWS Duluth, MN

Home | Current Version | Previous Version | Text Only | Print | Product List | Glossary Off
Versions: 1 2 3 4 5 6 7 8 9 10 11 12 13 14 15 16 17 18 19 20

000
FTUS43 KDLH 292300
TAFINL
TAF
KINL 292330Z 3000/3024 32015G23KT P6SM BKN050
     FM300200 30007KT P6SM SCT050
     FM301000 VRB03KT 6SM BR SCT050
      TEMPO 3010/3013 4SM BR
     FM301700 21006KT P6SM VCSH SCT020 BKN060
      TEMPO 3018/3022 5SM -SHRA BKN020 OVC050=

USA.gov is the U.S. government's official web portal to all federal, state and local government web resources and services.